sensor_id;sensor_type;location;lat;lon;timestamp;P1;durP1;ratioP1;P2;durP2;ratioP2
71572;SDS011;59408;51.032;9.410;2023-11-22T00:01:03;10.38;;;4.22;;
71572;SDS011;59408;51.032;9.410;2023-11-22T00:03:31;11.25;;;4.10;;
71572;SDS011;59408;51.032;9.410;2023-11-22T00:05:57;9.47;;;4.17;;
71572;SDS011;59408;51.032;9.410;2023-11-22T00:08:24;10.70;;;4.07;;
71572;SDS011;59408;51.032;9.410;2023-11-22T00:10:51;9.95;;;4.20;;
71572;SDS011;59408;51.032;9.410;2023-11-22T00:13:17;9.23;;;4.00;;
71572;SDS011;59408;51.032;9.410;2023-11-22T00:15:44;9.20;;;4.18;;
71572;SDS011;59408;51.032;9.410;2023-11-22T00:18:11;10.90;;;3.70;;
71572;SDS011;59408;51.032;9.410;2023-11-22T00:20:38;8.38;;;3.60;;
71572;SDS011;59408;51.032;9.410;2023-11-22T00:23:05;8.60;;;3.72;;
71572;SDS011;59408;51.032;9.410;2023-11-22T00:25:32;9.73;;;3.60;;
71572;SDS011;59408;51.032;9.410;2023-11-22T00:27:59;10.30;;;3.78;;
71572;SDS011;59408;51.032;9.410;2023-11-22T00:30:26;8.23;;;3.20;;
71572;SDS011;59408;51.032;9.410;2023-11-22T00:32:52;8.05;;;3.53;;
71572;SDS011;59408;51.032;9.410;2023-11-22T00:35:20;6.95;;;2.92;;
71572;SDS011;59408;51.032;9.410;2023-11-22T00:37:47;8.90;;;3.70;;
71572;SDS011;59408;51.032;9.410;2023-11-22T00:40:13;9.38;;;3.97;;
71572;SDS011;59408;51.032;9.410;2023-11-22T00:42:40;7.23;;;3.10;;
71572;SDS011;59408;51.032;9.410;2023-11-22T00:45:07;8.95;;;3.30;;
71572;SDS011;59408;51.032;9.410;2023-11-22T00:47:35;7.53;;;3.25;;
71572;SDS011;59408;51.032;9.410;2023-11-22T00:50:02;8.48;;;3.40;;
71572;SDS011;59408;51.032;9.410;2023-11-22T00:52:31;8.18;;;3.63;;
71572;SDS011;59408;51.032;9.410;2023-11-22T00:54:58;8.33;;;3.47;;
71572;SDS011;59408;51.032;9.410;2023-11-22T00:57:24;8.88;;;3.88;;
71572;SDS011;59408;51.032;9.410;2023-11-22T00:59:51;8.45;;;3.53;;
71572;SDS011;59408;51.032;9.410;2023-11-22T01:02:18;8.27;;;3.22;;
71572;SDS011;59408;51.032;9.410;2023-11-22T01:04:44;8.40;;;3.60;;
71572;SDS011;59408;51.032;9.410;2023-11-22T01:07:11;9.53;;;3.60;;
71572;SDS011;59408;51.032;9.410;2023-11-22T01:09:39;9.15;;;3.63;;
71572;SDS011;59408;51.032;9.410;2023-11-22T01:12:06;9.82;;;3.78;;
71572;SDS011;59408;51.032;9.410;2023-11-22T01:14:33;8.70;;;3.30;;
71572;SDS011;59408;51.032;9.410;2023-11-22T01:16:59;9.60;;;3.55;;
71572;SDS011;59408;51.032;9.410;2023-11-22T01:19:26;9.77;;;3.40;;
71572;SDS011;59408;51.032;9.410;2023-11-22T01:21:53;8.00;;;3.38;;
71572;SDS011;59408;51.032;9.410;2023-11-22T01:24:20;8.77;;;3.40;;
71572;SDS011;59408;51.032;9.410;2023-11-22T01:26:47;7.90;;;3.05;;
71572;SDS011;59408;51.032;9.410;2023-11-22T01:29:14;9.43;;;3.55;;
71572;SDS011;59408;51.032;9.410;2023-11-22T01:31:41;8.93;;;3.20;;
71572;SDS011;59408;51.032;9.410;2023-11-22T01:34:07;9.55;;;3.10;;
71572;SDS011;59408;51.032;9.410;2023-11-22T01:36:37;8.20;;;3.58;;
71572;SDS011;59408;51.032;9.410;2023-11-22T01:39:07;8.07;;;3.03;;
71572;SDS011;59408;51.032;9.410;2023-11-22T01:41:34;8.68;;;3.63;;
71572;SDS011;59408;51.032;9.410;2023-11-22T01:44:02;8.17;;;2.80;;
71572;SDS011;59408;51.032;9.410;2023-11-22T01:46:29;8.32;;;3.72;;
71572;SDS011;59408;51.032;9.410;2023-11-22T01:48:56;8.55;;;3.25;;
71572;SDS011;59408;51.032;9.410;2023-11-22T01:51:23;8.40;;;3.35;;
71572;SDS011;59408;51.032;9.410;2023-11-22T01:53:52;8.18;;;3.08;;
71572;SDS011;59408;51.032;9.410;2023-11-22T01:56:20;7.53;;;3.47;;
71572;SDS011;59408;51.032;9.410;2023-11-22T01:58:48;8.80;;;2.50;;
71572;SDS011;59408;51.032;9.410;2023-11-22T02:01:17;8.20;;;3.22;;
71572;SDS011;59408;51.032;9.410;2023-11-22T02:03:45;8.68;;;3.22;;
71572;SDS011;59408;51.032;9.410;2023-11-22T02:06:13;8.90;;;3.20;;
71572;SDS011;59408;51.032;9.410;2023-11-22T02:08:41;8.30;;;2.70;;
71572;SDS011;59408;51.032;9.410;2023-11-22T02:11:08;8.75;;;3.20;;
71572;SDS011;59408;51.032;9.410;2023-11-22T02:13:35;10.05;;;3.13;;
71572;SDS011;59408;51.032;9.410;2023-11-22T02:16:01;7.15;;;2.45;;
71572;SDS011;59408;51.032;9.410;2023-11-22T02:18:30;9.95;;;3.03;;
71572;SDS011;59408;51.032;9.410;2023-11-22T02:20:56;6.63;;;2.30;;
71572;SDS011;59408;51.032;9.410;2023-11-22T02:23:25;7.65;;;2.60;;
71572;SDS011;59408;51.032;9.410;2023-11-22T02:25:51;7.30;;;2.50;;
71572;SDS011;59408;51.032;9.410;2023-11-22T02:28:18;6.55;;;2.33;;
71572;SDS011;59408;51.032;9.410;2023-11-22T02:30:44;7.15;;;2.47;;
71572;SDS011;59408;51.032;9.410;2023-11-22T02:33:11;6.77;;;2.47;;
71572;SDS011;59408;51.032;9.410;2023-11-22T02:35:38;6.40;;;2.47;;
71572;SDS011;59408;51.032;9.410;2023-11-22T02:38:05;6.28;;;2.50;;
71572;SDS011;59408;51.032;9.410;2023-11-22T02:40:33;7.32;;;2.60;;
71572;SDS011;59408;51.032;9.410;2023-11-22T02:43:00;6.47;;;2.63;;
71572;SDS011;59408;51.032;9.410;2023-11-22T02:45:27;7.17;;;2.53;;
71572;SDS011;59408;51.032;9.410;2023-11-22T02:47:54;5.90;;;2.05;;
71572;SDS011;59408;51.032;9.410;2023-11-22T02:50:21;7.57;;;2.20;;
71572;SDS011;59408;51.032;9.410;2023-11-22T02:52:48;8.40;;;2.50;;
71572;SDS011;59408;51.032;9.410;2023-11-22T02:55:14;5.82;;;2.10;;
71572;SDS011;59408;51.032;9.410;2023-11-22T02:57:42;6.67;;;1.97;;
71572;SDS011;59408;51.032;9.410;2023-11-22T03:00:09;5.57;;;2.05;;
71572;SDS011;59408;51.032;9.410;2023-11-22T03:02:36;6.93;;;2.50;;
71572;SDS011;59408;51.032;9.410;2023-11-22T03:05:03;6.82;;;2.30;;
71572;SDS011;59408;51.032;9.410;2023-11-22T03:07:30;8.18;;;3.47;;
71572;SDS011;59408;51.032;9.410;2023-11-22T03:09:57;8.17;;;2.80;;
71572;SDS011;59408;51.032;9.410;2023-11-22T03:12:24;10.32;;;3.58;;
71572;SDS011;59408;51.032;9.410;2023-11-22T03:14:52;7.35;;;2.92;;
71572;SDS011;59408;51.032;9.410;2023-11-22T03:17:18;8.68;;;3.38;;
71572;SDS011;59408;51.032;9.410;2023-11-22T03:19:45;8.68;;;3.22;;
71572;SDS011;59408;51.032;9.410;2023-11-22T03:22:11;8.20;;;2.80;;
71572;SDS011;59408;51.032;9.410;2023-11-22T03:24:38;6.65;;;2.55;;
71572;SDS011;59408;51.032;9.410;2023-11-22T03:27:04;6.78;;;2.97;;
71572;SDS011;59408;51.032;9.410;2023-11-22T03:29:31;7.45;;;2.65;;
71572;SDS011;59408;51.032;9.410;2023-11-22T03:31:59;7.30;;;2.58;;
71572;SDS011;59408;51.032;9.410;2023-11-22T03:34:26;8.37;;;2.60;;
71572;SDS011;59408;51.032;9.410;2023-11-22T03:36:53;7.70;;;2.50;;
71572;SDS011;59408;51.032;9.410;2023-11-22T03:39:20;7.55;;;2.60;;
71572;SDS011;59408;51.032;9.410;2023-11-22T03:41:46;7.95;;;3.17;;
71572;SDS011;59408;51.032;9.410;2023-11-22T03:44:15;7.53;;;2.80;;
71572;SDS011;59408;51.032;9.410;2023-11-22T03:46:41;8.07;;;2.83;;
71572;SDS011;59408;51.032;9.410;2023-11-22T03:49:10;8.05;;;2.75;;
71572;SDS011;59408;51.032;9.410;2023-11-22T03:51:38;8.38;;;3.05;;
71572;SDS011;59408;51.032;9.410;2023-11-22T03:54:05;8.70;;;2.90;;
71572;SDS011;59408;51.032;9.410;2023-11-22T03:56:32;7.30;;;3.10;;
71572;SDS011;59408;51.032;9.410;2023-11-22T03:58:59;7.83;;;2.63;;
71572;SDS011;59408;51.032;9.410;2023-11-22T04:01:25;7.30;;;2.90;;
71572;SDS011;59408;51.032;9.410;2023-11-22T04:03:52;7.30;;;2.88;;
71572;SDS011;59408;51.032;9.410;2023-11-22T04:06:20;6.93;;;2.30;;
71572;SDS011;59408;51.032;9.410;2023-11-22T04:08:47;7.07;;;2.70;;
71572;SDS011;59408;51.032;9.410;2023-11-22T04:11:13;10.10;;;3.27;;
71572;SDS011;59408;51.032;9.410;2023-11-22T04:13:41;7.55;;;2.83;;
71572;SDS011;59408;51.032;9.410;2023-11-22T04:16:07;9.20;;;3.25;;
71572;SDS011;59408;51.032;9.410;2023-11-22T04:18:35;8.73;;;3.10;;
71572;SDS011;59408;51.032;9.410;2023-11-22T04:21:02;8.05;;;3.30;;
71572;SDS011;59408;51.032;9.410;2023-11-22T04:23:30;10.30;;;3.23;;
71572;SDS011;59408;51.032;9.410;2023-11-22T04:25:57;7.03;;;2.83;;
71572;SDS011;59408;51.032;9.410;2023-11-22T04:28:23;8.70;;;3.35;;
71572;SDS011;59408;51.032;9.410;2023-11-22T04:30:50;8.60;;;2.95;;
71572;SDS011;59408;51.032;9.410;2023-11-22T04:33:17;7.72;;;2.83;;
71572;SDS011;59408;51.032;9.410;2023-11-22T04:35:44;7.80;;;2.70;;
71572;SDS011;59408;51.032;9.410;2023-11-22T04:38:10;8.05;;;3.17;;
71572;SDS011;59408;51.032;9.410;2023-11-22T04:40:39;6.93;;;3.00;;
71572;SDS011;59408;51.032;9.410;2023-11-22T04:43:05;7.88;;;3.00;;
71572;SDS011;59408;51.032;9.410;2023-11-22T04:45:32;8.23;;;2.88;;
71572;SDS011;59408;51.032;9.410;2023-11-22T04:47:58;6.90;;;2.70;;
71572;SDS011;59408;51.032;9.410;2023-11-22T04:50:25;9.20;;;2.35;;
71572;SDS011;59408;51.032;9.410;2023-11-22T04:52:52;8.18;;;3.13;;
71572;SDS011;59408;51.032;9.410;2023-11-22T04:55:18;7.25;;;2.53;;
71572;SDS011;59408;51.032;9.410;2023-11-22T04:57:46;7.72;;;2.90;;
71572;SDS011;59408;51.032;9.410;2023-11-22T05:00:13;8.70;;;2.40;;
71572;SDS011;59408;51.032;9.410;2023-11-22T05:02:40;6.80;;;2.72;;
71572;SDS011;59408;51.032;9.410;2023-11-22T05:05:07;7.90;;;2.72;;
71572;SDS011;59408;51.032;9.410;2023-11-22T05:07:34;6.43;;;2.67;;
71572;SDS011;59408;51.032;9.410;2023-11-22T05:10:00;7.90;;;2.90;;
71572;SDS011;59408;51.032;9.410;2023-11-22T05:12:27;7.33;;;2.60;;
71572;SDS011;59408;51.032;9.410;2023-11-22T05:14:55;8.05;;;2.88;;
71572;SDS011;59408;51.032;9.410;2023-11-22T05:17:22;7.10;;;2.70;;
71572;SDS011;59408;51.032;9.410;2023-11-22T05:19:49;9.18;;;2.95;;
71572;SDS011;59408;51.032;9.410;2023-11-22T05:22:16;6.45;;;2.60;;
71572;SDS011;59408;51.032;9.410;2023-11-22T05:24:42;6.93;;;2.70;;
71572;SDS011;59408;51.032;9.410;2023-11-22T05:27:09;6.85;;;2.53;;
71572;SDS011;59408;51.032;9.410;2023-11-22T05:29:36;6.60;;;2.70;;
71572;SDS011;59408;51.032;9.410;2023-11-22T05:32:16;8.38;;;2.65;;
71572;SDS011;59408;51.032;9.410;2023-11-22T05:34:43;7.95;;;2.90;;
71572;SDS011;59408;51.032;9.410;2023-11-22T05:37:09;7.73;;;2.47;;
71572;SDS011;59408;51.032;9.410;2023-11-22T05:39:36;6.88;;;2.80;;
71572;SDS011;59408;51.032;9.410;2023-11-22T05:42:03;8.13;;;3.25;;
71572;SDS011;59408;51.032;9.410;2023-11-22T05:44:29;7.25;;;2.50;;
71572;SDS011;59408;51.032;9.410;2023-11-22T05:46:56;8.57;;;2.60;;
71572;SDS011;59408;51.032;9.410;2023-11-22T05:49:24;8.50;;;2.70;;
71572;SDS011;59408;51.032;9.410;2023-11-22T05:51:51;7.75;;;2.83;;
71572;SDS011;59408;51.032;9.410;2023-11-22T05:54:17;7.43;;;2.53;;
71572;SDS011;59408;51.032;9.410;2023-11-22T05:56:44;8.98;;;3.03;;
71572;SDS011;59408;51.032;9.410;2023-11-22T05:59:13;8.73;;;3.40;;
71572;SDS011;59408;51.032;9.410;2023-11-22T06:01:42;8.30;;;2.80;;
71572;SDS011;59408;51.032;9.410;2023-11-22T06:04:09;8.20;;;3.03;;
71572;SDS011;59408;51.032;9.410;2023-11-22T06:06:37;8.93;;;3.15;;
71572;SDS011;59408;51.032;9.410;2023-11-22T06:09:04;11.32;;;3.50;;
71572;SDS011;59408;51.032;9.410;2023-11-22T06:11:31;8.18;;;3.58;;
71572;SDS011;59408;51.032;9.410;2023-11-22T06:13:57;6.80;;;2.60;;
71572;SDS011;59408;51.032;9.410;2023-11-22T06:16:24;7.90;;;2.78;;
71572;SDS011;59408;51.032;9.410;2023-11-22T06:18:50;7.38;;;2.85;;
71572;SDS011;59408;51.032;9.410;2023-11-22T06:21:17;8.00;;;3.00;;
71572;SDS011;59408;51.032;9.410;2023-11-22T06:23:45;9.27;;;3.08;;
71572;SDS011;59408;51.032;9.410;2023-11-22T06:26:12;8.07;;;2.80;;
71572;SDS011;59408;51.032;9.410;2023-11-22T06:28:39;9.63;;;2.83;;
71572;SDS011;59408;51.032;9.410;2023-11-22T06:31:05;8.25;;;3.30;;
71572;SDS011;59408;51.032;9.410;2023-11-22T06:33:32;8.45;;;3.08;;
71572;SDS011;59408;51.032;9.410;2023-11-22T06:35:58;8.05;;;3.10;;
71572;SDS011;59408;51.032;9.410;2023-11-22T06:38:25;8.47;;;2.90;;
71572;SDS011;59408;51.032;9.410;2023-11-22T06:40:53;9.00;;;3.08;;
71572;SDS011;59408;51.032;9.410;2023-11-22T06:43:19;7.15;;;2.88;;
71572;SDS011;59408;51.032;9.410;2023-11-22T06:45:46;7.20;;;2.85;;
71572;SDS011;59408;51.032;9.410;2023-11-22T06:48:13;10.13;;;3.50;;
71572;SDS011;59408;51.032;9.410;2023-11-22T06:50:39;8.00;;;3.00;;
71572;SDS011;59408;51.032;9.410;2023-11-22T06:53:06;9.10;;;3.47;;
71572;SDS011;59408;51.032;9.410;2023-11-22T06:55:33;9.05;;;3.08;;
71572;SDS011;59408;51.032;9.410;2023-11-22T06:58:01;8.75;;;3.20;;
71572;SDS011;59408;51.032;9.410;2023-11-22T07:00:27;9.15;;;3.60;;
71572;SDS011;59408;51.032;9.410;2023-11-22T07:02:54;8.77;;;3.03;;
71572;SDS011;59408;51.032;9.410;2023-11-22T07:05:21;9.10;;;3.33;;
71572;SDS011;59408;51.032;9.410;2023-11-22T07:07:48;8.85;;;3.50;;
71572;SDS011;59408;51.032;9.410;2023-11-22T07:10:14;9.70;;;3.42;;
71572;SDS011;59408;51.032;9.410;2023-11-22T07:12:41;10.63;;;3.58;;
71572;SDS011;59408;51.032;9.410;2023-11-22T07:15:10;7.83;;;2.90;;
71572;SDS011;59408;51.032;9.410;2023-11-22T07:17:36;8.18;;;3.20;;
71572;SDS011;59408;51.032;9.410;2023-11-22T07:20:03;8.55;;;3.40;;
71572;SDS011;59408;51.032;9.410;2023-11-22T07:22:31;8.02;;;3.25;;
71572;SDS011;59408;51.032;9.410;2023-11-22T07:24:58;8.93;;;3.67;;
71572;SDS011;59408;51.032;9.410;2023-11-22T07:27:24;10.30;;;3.47;;
71572;SDS011;59408;51.032;9.410;2023-11-22T07:29:51;7.82;;;2.83;;
71572;SDS011;59408;51.032;9.410;2023-11-22T07:32:18;8.45;;;3.30;;
71572;SDS011;59408;51.032;9.410;2023-11-22T07:34:46;9.38;;;3.38;;
71572;SDS011;59408;51.032;9.410;2023-11-22T07:37:12;10.75;;;3.78;;
71572;SDS011;59408;51.032;9.410;2023-11-22T07:39:39;9.80;;;3.37;;
71572;SDS011;59408;51.032;9.410;2023-11-22T07:42:05;13.88;;;3.67;;
71572;SDS011;59408;51.032;9.410;2023-11-22T07:44:32;129.63;;;36.42;;
71572;SDS011;59408;51.032;9.410;2023-11-22T07:46:59;141.95;;;44.72;;
71572;SDS011;59408;51.032;9.410;2023-11-22T07:49:27;113.25;;;37.95;;
71572;SDS011;59408;51.032;9.410;2023-11-22T07:51:54;43.63;;;14.80;;
71572;SDS011;59408;51.032;9.410;2023-11-22T07:54:20;33.70;;;13.00;;
71572;SDS011;59408;51.032;9.410;2023-11-22T07:56:47;24.90;;;9.27;;
71572;SDS011;59408;51.032;9.410;2023-11-22T07:59:13;17.35;;;6.45;;
71572;SDS011;59408;51.032;9.410;2023-11-22T08:01:42;20.25;;;7.90;;
71572;SDS011;59408;51.032;9.410;2023-11-22T08:04:09;12.93;;;5.00;;
71572;SDS011;59408;51.032;9.410;2023-11-22T08:06:38;12.23;;;4.63;;
71572;SDS011;59408;51.032;9.410;2023-11-22T08:09:04;17.17;;;6.60;;
71572;SDS011;59408;51.032;9.410;2023-11-22T08:11:31;12.13;;;5.40;;
71572;SDS011;59408;51.032;9.410;2023-11-22T08:13:57;11.38;;;4.93;;
71572;SDS011;59408;51.032;9.410;2023-11-22T08:16:24;13.07;;;5.77;;
71572;SDS011;59408;51.032;9.410;2023-11-22T08:18:51;12.68;;;5.65;;
71572;SDS011;59408;51.032;9.410;2023-11-22T08:21:18;11.88;;;5.03;;
71572;SDS011;59408;51.032;9.410;2023-11-22T08:23:46;12.27;;;4.70;;
71572;SDS011;59408;51.032;9.410;2023-11-22T08:26:13;12.73;;;4.72;;
71572;SDS011;59408;51.032;9.410;2023-11-22T08:28:40;11.47;;;4.33;;
71572;SDS011;59408;51.032;9.410;2023-11-22T08:31:06;11.90;;;4.55;;
71572;SDS011;59408;51.032;9.410;2023-11-22T08:33:33;10.40;;;4.90;;
71572;SDS011;59408;51.032;9.410;2023-11-22T08:36:00;11.10;;;4.70;;
71572;SDS011;59408;51.032;9.410;2023-11-22T08:38:26;11.10;;;4.07;;
71572;SDS011;59408;51.032;9.410;2023-11-22T08:40:54;10.57;;;4.30;;
71572;SDS011;59408;51.032;9.410;2023-11-22T08:43:21;12.93;;;5.05;;
71572;SDS011;59408;51.032;9.410;2023-11-22T08:45:48;10.98;;;4.40;;
71572;SDS011;59408;51.032;9.410;2023-11-22T08:48:20;11.20;;;4.70;;
71572;SDS011;59408;51.032;9.410;2023-11-22T08:50:47;10.55;;;4.30;;
71572;SDS011;59408;51.032;9.410;2023-11-22T08:53:15;10.23;;;4.23;;
71572;SDS011;59408;51.032;9.410;2023-11-22T08:55:42;9.60;;;3.97;;
71572;SDS011;59408;51.032;9.410;2023-11-22T08:58:11;10.77;;;4.35;;
71572;SDS011;59408;51.032;9.410;2023-11-22T09:00:37;16.83;;;6.78;;
71572;SDS011;59408;51.032;9.410;2023-11-22T09:03:04;13.23;;;5.40;;
71572;SDS011;59408;51.032;9.410;2023-11-22T09:05:30;8.97;;;3.57;;
71572;SDS011;59408;51.032;9.410;2023-11-22T09:07:57;8.88;;;3.40;;
71572;SDS011;59408;51.032;9.410;2023-11-22T09:10:29;8.45;;;3.75;;
71572;SDS011;59408;51.032;9.410;2023-11-22T09:12:56;9.05;;;3.40;;
71572;SDS011;59408;51.032;9.410;2023-11-22T09:15:24;7.70;;;3.25;;
71572;SDS011;59408;51.032;9.410;2023-11-22T09:17:50;8.10;;;3.07;;
71572;SDS011;59408;51.032;9.410;2023-11-22T09:20:17;7.63;;;3.13;;
71572;SDS011;59408;51.032;9.410;2023-11-22T09:22:45;8.57;;;3.20;;
71572;SDS011;59408;51.032;9.410;2023-11-22T09:25:12;7.47;;;2.95;;
71572;SDS011;59408;51.032;9.410;2023-11-22T09:27:39;6.97;;;2.70;;
71572;SDS011;59408;51.032;9.410;2023-11-22T09:30:06;6.97;;;2.70;;
71572;SDS011;59408;51.032;9.410;2023-11-22T09:32:35;8.40;;;2.58;;
71572;SDS011;59408;51.032;9.410;2023-11-22T09:35:02;6.20;;;2.40;;
71572;SDS011;59408;51.032;9.410;2023-11-22T09:37:29;6.00;;;2.28;;
71572;SDS011;59408;51.032;9.410;2023-11-22T09:39:55;6.63;;;2.60;;
71572;SDS011;59408;51.032;9.410;2023-11-22T09:42:22;6.37;;;2.43;;
71572;SDS011;59408;51.032;9.410;2023-11-22T09:44:49;6.95;;;2.50;;
71572;SDS011;59408;51.032;9.410;2023-11-22T09:47:15;6.70;;;2.50;;
71572;SDS011;59408;51.032;9.410;2023-11-22T09:49:44;6.20;;;2.50;;
71572;SDS011;59408;51.032;9.410;2023-11-22T09:52:16;6.70;;;2.60;;
71572;SDS011;59408;51.032;9.410;2023-11-22T09:54:51;6.33;;;2.30;;
71572;SDS011;59408;51.032;9.410;2023-11-22T09:57:20;6.57;;;2.70;;
71572;SDS011;59408;51.032;9.410;2023-11-22T09:59:50;7.57;;;2.55;;
71572;SDS011;59408;51.032;9.410;2023-11-22T10:02:19;6.55;;;2.38;;
71572;SDS011;59408;51.032;9.410;2023-11-22T10:04:47;6.30;;;2.55;;
71572;SDS011;59408;51.032;9.410;2023-11-22T10:07:14;5.83;;;2.37;;
71572;SDS011;59408;51.032;9.410;2023-11-22T10:09:40;7.57;;;2.35;;
71572;SDS011;59408;51.032;9.410;2023-11-22T10:12:07;7.22;;;2.38;;
71572;SDS011;59408;51.032;9.410;2023-11-22T10:14:34;6.60;;;2.10;;
71572;SDS011;59408;51.032;9.410;2023-11-22T10:17:00;6.40;;;2.50;;
71572;SDS011;59408;51.032;9.410;2023-11-22T10:19:27;6.90;;;2.40;;
71572;SDS011;59408;51.032;9.410;2023-11-22T10:22:05;6.45;;;2.40;;
71572;SDS011;59408;51.032;9.410;2023-11-22T10:24:34;7.15;;;2.95;;
71572;SDS011;59408;51.032;9.410;2023-11-22T10:27:01;5.88;;;2.25;;
71572;SDS011;59408;51.032;9.410;2023-11-22T10:29:28;5.47;;;2.28;;
71572;SDS011;59408;51.032;9.410;2023-11-22T10:31:55;5.93;;;2.70;;
71572;SDS011;59408;51.032;9.410;2023-11-22T10:34:22;6.10;;;2.35;;
71572;SDS011;59408;51.032;9.410;2023-11-22T10:36:50;6.10;;;2.42;;
71572;SDS011;59408;51.032;9.410;2023-11-22T10:39:20;6.82;;;2.60;;
71572;SDS011;59408;51.032;9.410;2023-11-22T10:41:46;7.32;;;3.08;;
71572;SDS011;59408;51.032;9.410;2023-11-22T10:44:13;5.83;;;2.17;;
71572;SDS011;59408;51.032;9.410;2023-11-22T10:46:42;7.03;;;2.70;;
71572;SDS011;59408;51.032;9.410;2023-11-22T10:49:09;7.03;;;2.80;;
71572;SDS011;59408;51.032;9.410;2023-11-22T10:51:39;6.45;;;2.40;;
71572;SDS011;59408;51.032;9.410;2023-11-22T10:54:06;7.28;;;2.67;;
71572;SDS011;59408;51.032;9.410;2023-11-22T10:56:36;6.37;;;2.13;;
71572;SDS011;59408;51.032;9.410;2023-11-22T10:59:05;7.05;;;2.70;;
71572;SDS011;59408;51.032;9.410;2023-11-22T11:01:36;6.97;;;2.55;;
71572;SDS011;59408;51.032;9.410;2023-11-22T11:04:09;5.70;;;2.10;;
71572;SDS011;59408;51.032;9.410;2023-11-22T11:06:37;6.50;;;2.58;;
71572;SDS011;59408;51.032;9.410;2023-11-22T11:09:04;6.73;;;2.77;;
71572;SDS011;59408;51.032;9.410;2023-11-22T11:11:32;8.32;;;2.40;;
71572;SDS011;59408;51.032;9.410;2023-11-22T11:14:01;6.85;;;2.75;;
71572;SDS011;59408;51.032;9.410;2023-11-22T11:16:29;7.50;;;3.45;;
71572;SDS011;59408;51.032;9.410;2023-11-22T11:18:58;6.68;;;2.70;;
71572;SDS011;59408;51.032;9.410;2023-11-22T11:21:25;5.93;;;2.60;;
71572;SDS011;59408;51.032;9.410;2023-11-22T11:23:52;6.53;;;2.50;;
71572;SDS011;59408;51.032;9.410;2023-11-22T11:26:21;6.70;;;2.70;;
71572;SDS011;59408;51.032;9.410;2023-11-22T11:28:48;7.78;;;2.90;;
71572;SDS011;59408;51.032;9.410;2023-11-22T11:31:20;7.85;;;2.97;;
71572;SDS011;59408;51.032;9.410;2023-11-22T11:33:54;8.30;;;2.60;;
71572;SDS011;59408;51.032;9.410;2023-11-22T11:36:24;8.10;;;2.70;;
71572;SDS011;59408;51.032;9.410;2023-11-22T11:38:52;7.25;;;2.47;;
71572;SDS011;59408;51.032;9.410;2023-11-22T11:41:22;7.57;;;2.88;;
71572;SDS011;59408;51.032;9.410;2023-11-22T11:43:51;6.63;;;2.92;;
71572;SDS011;59408;51.032;9.410;2023-11-22T11:46:19;6.13;;;2.50;;
71572;SDS011;59408;51.032;9.410;2023-11-22T11:48:47;6.70;;;2.90;;
71572;SDS011;59408;51.032;9.410;2023-11-22T11:51:15;7.63;;;2.85;;
71572;SDS011;59408;51.032;9.410;2023-11-22T11:53:42;6.78;;;2.67;;
71572;SDS011;59408;51.032;9.410;2023-11-22T11:56:09;6.75;;;2.97;;
71572;SDS011;59408;51.032;9.410;2023-11-22T11:58:36;8.17;;;2.83;;
71572;SDS011;59408;51.032;9.410;2023-11-22T12:01:04;8.20;;;2.75;;
71572;SDS011;59408;51.032;9.410;2023-11-22T12:03:32;6.25;;;2.78;;
71572;SDS011;59408;51.032;9.410;2023-11-22T12:05:59;8.32;;;2.97;;
71572;SDS011;59408;51.032;9.410;2023-11-22T12:08:26;6.95;;;3.28;;
71572;SDS011;59408;51.032;9.410;2023-11-22T12:10:55;7.23;;;3.07;;
71572;SDS011;59408;51.032;9.410;2023-11-22T12:13:22;6.97;;;3.10;;
71572;SDS011;59408;51.032;9.410;2023-11-22T12:15:48;7.82;;;2.92;;
71572;SDS011;59408;51.032;9.410;2023-11-22T12:18:16;7.85;;;3.25;;
71572;SDS011;59408;51.032;9.410;2023-11-22T12:20:54;7.07;;;3.05;;
71572;SDS011;59408;51.032;9.410;2023-11-22T12:23:22;6.57;;;2.80;;
71572;SDS011;59408;51.032;9.410;2023-11-22T12:25:53;7.03;;;2.90;;
71572;SDS011;59408;51.032;9.410;2023-11-22T12:28:21;7.80;;;2.97;;
71572;SDS011;59408;51.032;9.410;2023-11-22T12:30:51;9.07;;;3.22;;
71572;SDS011;59408;51.032;9.410;2023-11-22T12:33:18;9.30;;;3.13;;
71572;SDS011;59408;51.032;9.410;2023-11-22T12:35:45;7.87;;;3.70;;
71572;SDS011;59408;51.032;9.410;2023-11-22T12:38:14;9.00;;;2.92;;
71572;SDS011;59408;51.032;9.410;2023-11-22T12:40:43;6.72;;;2.72;;
71572;SDS011;59408;51.032;9.410;2023-11-22T12:43:11;7.55;;;3.00;;
71572;SDS011;59408;51.032;9.410;2023-11-22T12:45:39;7.40;;;3.30;;
71572;SDS011;59408;51.032;9.410;2023-11-22T12:48:21;7.60;;;3.50;;
71572;SDS011;59408;51.032;9.410;2023-11-22T12:50:49;8.48;;;3.38;;
71572;SDS011;59408;51.032;9.410;2023-11-22T12:53:17;9.45;;;3.70;;
71572;SDS011;59408;51.032;9.410;2023-11-22T12:55:44;8.20;;;3.30;;
71572;SDS011;59408;51.032;9.410;2023-11-22T12:58:12;8.20;;;3.40;;
71572;SDS011;59408;51.032;9.410;2023-11-22T13:00:39;8.00;;;3.70;;
71572;SDS011;59408;51.032;9.410;2023-11-22T13:03:06;8.95;;;3.40;;
71572;SDS011;59408;51.032;9.410;2023-11-22T13:05:33;9.98;;;3.90;;
71572;SDS011;59408;51.032;9.410;2023-11-22T13:08:01;8.88;;;4.05;;
71572;SDS011;59408;51.032;9.410;2023-11-22T13:10:30;8.80;;;3.90;;
71572;SDS011;59408;51.032;9.410;2023-11-22T13:12:56;8.67;;;3.80;;
71572;SDS011;59408;51.032;9.410;2023-11-22T13:15:23;8.68;;;3.40;;
71572;SDS011;59408;51.032;9.410;2023-11-22T13:17:50;7.68;;;3.40;;
71572;SDS011;59408;51.032;9.410;2023-11-22T13:20:18;8.20;;;3.60;;
71572;SDS011;59408;51.032;9.410;2023-11-22T13:22:44;8.65;;;3.70;;
71572;SDS011;59408;51.032;9.410;2023-11-22T13:25:11;7.20;;;3.20;;
71572;SDS011;59408;51.032;9.410;2023-11-22T13:27:39;7.05;;;2.90;;
71572;SDS011;59408;51.032;9.410;2023-11-22T13:30:07;8.27;;;3.83;;
71572;SDS011;59408;51.032;9.410;2023-11-22T13:32:34;7.72;;;3.38;;
71572;SDS011;59408;51.032;9.410;2023-11-22T13:35:00;9.40;;;3.17;;
71572;SDS011;59408;51.032;9.410;2023-11-22T13:37:27;8.57;;;3.60;;
71572;SDS011;59408;51.032;9.410;2023-11-22T13:39:54;7.72;;;3.65;;
71572;SDS011;59408;51.032;9.410;2023-11-22T13:42:20;9.40;;;4.70;;
71572;SDS011;59408;51.032;9.410;2023-11-22T13:44:48;10.40;;;3.60;;
71572;SDS011;59408;51.032;9.410;2023-11-22T13:47:15;8.05;;;3.40;;
71572;SDS011;59408;51.032;9.410;2023-11-22T13:49:41;7.57;;;3.40;;
71572;SDS011;59408;51.032;9.410;2023-11-22T13:52:08;7.47;;;3.03;;
71572;SDS011;59408;51.032;9.410;2023-11-22T13:54:35;7.28;;;3.20;;
71572;SDS011;59408;51.032;9.410;2023-11-22T13:57:01;8.10;;;3.40;;
71572;SDS011;59408;51.032;9.410;2023-11-22T13:59:28;7.82;;;3.45;;
71572;SDS011;59408;51.032;9.410;2023-11-22T14:01:56;8.00;;;3.50;;
71572;SDS011;59408;51.032;9.410;2023-11-22T14:04:23;7.35;;;3.38;;
71572;SDS011;59408;51.032;9.410;2023-11-22T14:06:50;9.40;;;3.85;;
71572;SDS011;59408;51.032;9.410;2023-11-22T14:09:16;7.50;;;3.42;;
71572;SDS011;59408;51.032;9.410;2023-11-22T14:11:43;7.07;;;3.25;;
71572;SDS011;59408;51.032;9.410;2023-11-22T14:14:09;7.73;;;3.37;;
71572;SDS011;59408;51.032;9.410;2023-11-22T14:16:39;6.85;;;3.08;;
71572;SDS011;59408;51.032;9.410;2023-11-22T14:19:07;7.18;;;3.30;;
71572;SDS011;59408;51.032;9.410;2023-11-22T14:21:34;8.98;;;3.85;;
71572;SDS011;59408;51.032;9.410;2023-11-22T14:24:00;7.65;;;3.70;;
71572;SDS011;59408;51.032;9.410;2023-11-22T14:26:27;6.93;;;3.37;;
71572;SDS011;59408;51.032;9.410;2023-11-22T14:28:53;7.78;;;3.33;;
71572;SDS011;59408;51.032;9.410;2023-11-22T14:31:20;8.77;;;3.28;;
71572;SDS011;59408;51.032;9.410;2023-11-22T14:33:46;9.75;;;4.45;;
71572;SDS011;59408;51.032;9.410;2023-11-22T14:36:14;9.82;;;4.28;;
71572;SDS011;59408;51.032;9.410;2023-11-22T14:38:41;11.83;;;4.87;;
71572;SDS011;59408;51.032;9.410;2023-11-22T14:41:08;9.30;;;4.30;;
71572;SDS011;59408;51.032;9.410;2023-11-22T14:43:35;8.15;;;3.90;;
71572;SDS011;59408;51.032;9.410;2023-11-22T14:46:01;9.88;;;3.80;;